createdAt,value
2023-03-30T00:00:57.151Z,0.00
2023-03-30T00:01:57.109Z,0.00
2023-03-30T00:02:57.213Z,0.00
2023-03-30T00:03:57.223Z,0.00
2023-03-30T00:04:57.312Z,0.00
2023-03-30T00:05:57.086Z,0.00
2023-03-30T00:06:57.073Z,0.00
2023-03-30T00:07:57.039Z,0.00
2023-03-30T00:08:57.085Z,0.00
2023-03-30T00:09:57.053Z,0.00
2023-03-30T00:10:57.019Z,0.00
2023-03-30T00:11:57.009Z,0.00
2023-03-30T00:12:57.000Z,0.00
2023-03-30T00:13:57.489Z,0.00
2023-03-30T00:14:56.966Z,0.00
2023-03-30T00:15:56.971Z,0.00
2023-03-30T00:16:57.034Z,0.00
2023-03-30T00:17:57.046Z,0.00
2023-03-30T00:18:56.949Z,0.00
2023-03-30T00:19:56.948Z,0.00
2023-03-30T00:20:56.924Z,0.00
2023-03-30T00:21:56.896Z,0.00
2023-03-30T00:22:56.894Z,0.00
2023-03-30T00:23:56.885Z,0.00
2023-03-30T00:24:56.860Z,0.00
2023-03-30T00:25:56.855Z,0.00
2023-03-30T00:26:56.838Z,0.00
2023-03-30T00:27:56.820Z,0.00
2023-03-30T00:28:56.823Z,0.00
2023-03-30T00:29:56.813Z,0.00
2023-03-30T00:30:56.814Z,0.00
2023-03-30T00:31:56.832Z,0.00
2023-03-30T00:32:56.817Z,0.00
2023-03-30T00:33:56.765Z,0.00
2023-03-30T00:34:56.770Z,0.00
2023-03-30T00:35:56.827Z,0.00
2023-03-30T00:36:56.750Z,0.00
2023-03-30T00:37:56.715Z,0.00
2023-03-30T00:38:56.700Z,0.00
2023-03-30T00:39:56.691Z,0.00
2023-03-30T00:40:56.698Z,0.00
2023-03-30T00:41:56.695Z,0.00
2023-03-30T00:43:04.184Z,0.00
2023-03-30T00:43:56.640Z,0.00
2023-03-30T00:44:56.649Z,0.00
2023-03-30T00:45:56.652Z,0.00
2023-03-30T00:46:56.611Z,0.00
2023-03-30T00:47:56.703Z,0.00
2023-03-30T00:48:56.588Z,0.00
2023-03-30T00:49:56.590Z,0.00
2023-03-30T00:50:56.608Z,0.00
2023-03-30T00:51:56.569Z,0.00
2023-03-30T00:52:56.601Z,0.00
2023-03-30T00:53:56.531Z,0.00
2023-03-30T00:54:56.528Z,0.00
2023-03-30T00:55:56.517Z,0.00
2023-03-30T00:56:56.608Z,0.00
2023-03-30T00:57:56.487Z,0.00
2023-03-30T00:58:56.479Z,0.00
2023-03-30T00:59:56.478Z,0.00
2023-03-30T01:00:56.469Z,0.00
2023-03-30T01:01:56.494Z,0.00
2023-03-30T01:02:56.603Z,0.00
2023-03-30T01:03:56.478Z,0.00
2023-03-30T01:04:56.434Z,0.00
2023-03-30T01:05:56.410Z,0.00
2023-03-30T01:06:56.420Z,0.00
2023-03-30T01:07:56.393Z,0.00
2023-03-30T01:08:56.374Z,0.00
2023-03-30T01:09:56.360Z,0.00
2023-03-30T01:10:56.397Z,0.00
2023-03-30T01:11:56.396Z,0.00
2023-03-30T01:12:56.325Z,0.00
2023-03-30T01:13:56.344Z,0.00
2023-03-30T01:14:56.307Z,0.00
2023-03-30T01:15:56.395Z,0.00
2023-03-30T01:16:56.296Z,0.00
2023-03-30T01:17:56.330Z,0.00
2023-03-30T01:18:56.263Z,0.00
2023-03-30T01:19:56.246Z,0.00
2023-03-30T01:20:56.249Z,0.00
2023-03-30T01:21:56.235Z,0.00
2023-03-30T01:22:56.244Z,0.00
2023-03-30T01:23:56.222Z,0.00
2023-03-30T01:24:56.231Z,0.00
2023-03-30T01:25:56.181Z,0.00
2023-03-30T01:26:56.170Z,0.00
2023-03-30T01:27:56.160Z,0.00
2023-03-30T01:28:56.159Z,0.00
2023-03-30T01:29:56.150Z,0.00
2023-03-30T01:30:56.169Z,0.00
2023-03-30T01:31:56.127Z,0.00
2023-03-30T01:32:56.178Z,0.00
2023-03-30T01:33:56.088Z,0.00
2023-03-30T01:34:56.110Z,0.00
2023-03-30T01:35:56.188Z,0.00
2023-03-30T01:36:56.064Z,0.00
2023-03-30T01:37:56.069Z,0.00
2023-03-30T01:38:56.082Z,0.00
2023-03-30T01:39:56.042Z,0.00
2023-03-30T01:40:56.016Z,0.00
2023-03-30T01:41:56.021Z,0.00
2023-03-30T01:42:56.545Z,0.00
2023-03-30T01:43:55.981Z,0.00
2023-03-30T01:44:55.981Z,0.00
2023-03-30T01:45:55.976Z,0.00
2023-03-30T01:46:55.992Z,0.00
2023-03-30T01:47:55.995Z,0.00
2023-03-30T01:48:55.955Z,0.00
2023-03-30T01:49:55.919Z,0.00
2023-03-30T01:50:55.918Z,0.00
2023-03-30T01:51:55.896Z,0.00
2023-03-30T01:52:55.887Z,0.00
2023-03-30T01:53:55.899Z,0.00
2023-03-30T01:54:55.889Z,0.00
2023-03-30T01:55:55.869Z,0.00
2023-03-30T01:56:55.888Z,0.00
2023-03-30T01:57:55.827Z,0.00
2023-03-30T01:58:55.862Z,0.00
2023-03-30T01:59:55.826Z,0.00
2023-03-30T02:00:55.814Z,0.00
2023-03-30T02:01:55.830Z,0.00
2023-03-30T02:02:55.927Z,0.00
2023-03-30T02:03:55.899Z,0.00
2023-03-30T02:04:55.779Z,0.00
2023-03-30T02:05:55.745Z,0.00
2023-03-30T02:06:55.732Z,0.00
2023-03-30T02:07:55.730Z,0.00
2023-03-30T02:08:55.737Z,0.00
2023-03-30T02:09:55.698Z,0.00
2023-03-30T02:10:55.714Z,0.00
2023-03-30T02:11:55.681Z,0.00
2023-03-30T02:12:55.668Z,0.00
2023-03-30T02:13:55.667Z,0.00
2023-03-30T02:14:55.664Z,0.00
2023-03-30T02:15:55.688Z,0.00
2023-03-30T02:16:55.627Z,0.00
2023-03-30T02:17:55.709Z,0.00
2023-03-30T02:18:55.613Z,0.00
2023-03-30T02:19:55.593Z,0.00
2023-03-30T02:20:55.585Z,0.00
2023-03-30T02:21:55.565Z,0.00
2023-03-30T02:22:55.572Z,0.00
2023-03-30T02:23:55.546Z,0.00
2023-03-30T02:24:55.556Z,0.00
2023-03-30T02:25:55.535Z,0.00
2023-03-30T02:26:55.540Z,0.00
2023-03-30T02:27:55.532Z,0.00
2023-03-30T02:28:55.503Z,0.00
2023-03-30T02:29:55.486Z,0.00
2023-03-30T02:30:55.477Z,0.00
2023-03-30T02:31:55.505Z,0.00
2023-03-30T02:32:55.497Z,0.00
2023-03-30T02:33:55.443Z,0.00
2023-03-30T02:34:55.431Z,0.00
2023-03-30T02:35:55.461Z,0.00
2023-03-30T02:36:55.418Z,0.00
2023-03-30T02:37:55.407Z,0.00
2023-03-30T02:38:55.388Z,0.00
2023-03-30T02:39:55.375Z,0.00
2023-03-30T02:40:55.384Z,0.00
2023-03-30T02:41:55.353Z,0.00
2023-03-30T02:42:55.395Z,0.00
2023-03-30T02:44:02.846Z,0.00
2023-03-30T02:44:55.327Z,0.00
2023-03-30T02:45:55.332Z,0.00
2023-03-30T02:46:55.300Z,0.00
2023-03-30T02:47:55.345Z,0.00
2023-03-30T02:48:55.288Z,0.00
2023-03-30T02:49:55.263Z,0.00
2023-03-30T02:50:55.254Z,0.00
2023-03-30T02:51:55.246Z,0.00
2023-03-30T02:52:55.260Z,0.00
2023-03-30T02:53:55.232Z,0.00
2023-03-30T02:54:55.235Z,0.00
2023-03-30T02:55:55.198Z,0.00
2023-03-30T02:56:55.220Z,0.00
2023-03-30T02:57:55.181Z,0.00
2023-03-30T02:58:55.211Z,0.00
2023-03-30T02:59:55.166Z,0.00
2023-03-30T03:00:57.396Z,0.00
2023-03-30T03:01:55.209Z,0.00
2023-03-30T03:02:55.285Z,0.00
2023-03-30T03:03:55.126Z,0.00
2023-03-30T03:04:55.107Z,0.00
2023-03-30T03:05:55.106Z,0.00
2023-03-30T03:06:55.086Z,0.00
2023-03-30T03:07:55.068Z,0.00
2023-03-30T03:08:55.101Z,0.00
2023-03-30T03:09:55.047Z,0.00
2023-03-30T03:10:55.045Z,0.00
2023-03-30T03:11:56.024Z,0.00
2023-03-30T03:12:55.022Z,0.00
2023-03-30T03:13:55.037Z,0.00
2023-03-30T03:14:55.021Z,0.00
2023-03-30T03:15:55.020Z,0.00
2023-03-30T03:16:55.021Z,0.00
2023-03-30T03:17:55.004Z,0.00
2023-03-30T03:18:54.968Z,0.00
2023-03-30T03:19:54.941Z,0.00
2023-03-30T03:20:54.948Z,0.00
2023-03-30T03:21:54.920Z,0.00
2023-03-30T03:22:54.923Z,0.00
2023-03-30T03:23:54.911Z,0.00
2023-03-30T03:24:54.891Z,0.00
2023-03-30T03:25:54.893Z,0.00
2023-03-30T03:26:54.884Z,0.00
2023-03-30T03:27:54.851Z,0.00
2023-03-30T03:28:54.857Z,0.00
2023-03-30T03:29:54.832Z,0.00
2023-03-30T03:30:54.907Z,0.00
2023-03-30T03:31:54.815Z,0.00
2023-03-30T03:32:54.849Z,0.00
2023-03-30T03:33:54.788Z,0.00
2023-03-30T03:34:54.777Z,0.00
2023-03-30T03:35:54.860Z,0.00
2023-03-30T03:36:54.765Z,0.00
2023-03-30T03:37:54.746Z,0.00
2023-03-30T03:38:54.739Z,0.00
2023-03-30T03:39:54.726Z,0.00
2023-03-30T03:40:54.778Z,0.00
2023-03-30T03:41:54.722Z,0.00
2023-03-30T03:42:54.765Z,0.00
2023-03-30T03:43:54.731Z,0.00
2023-03-30T03:44:54.763Z,0.00
2023-03-30T03:45:54.658Z,0.00
2023-03-30T03:46:54.811Z,0.00
2023-03-30T03:47:54.765Z,0.00
2023-03-30T03:48:54.641Z,0.00
2023-03-30T03:49:54.623Z,0.00
2023-03-30T03:50:54.641Z,0.00
2023-03-30T03:51:54.615Z,0.00
2023-03-30T03:52:54.589Z,0.00
2023-03-30T03:53:54.584Z,0.00
2023-03-30T03:54:54.573Z,0.00
2023-03-30T03:55:54.552Z,0.00
2023-03-30T03:56:54.604Z,0.00
2023-03-30T03:57:54.575Z,0.00
2023-03-30T03:58:54.536Z,0.00
2023-03-30T03:59:54.534Z,0.00
2023-03-30T04:00:54.541Z,0.00
2023-03-30T04:01:54.517Z,0.00
2023-03-30T04:02:54.517Z,0.00
2023-03-30T04:03:54.469Z,0.00
2023-03-30T04:04:54.542Z,0.00
2023-03-30T04:05:54.445Z,0.00
2023-03-30T04:06:54.429Z,0.00
2023-03-30T04:07:54.422Z,0.00
2023-03-30T04:08:54.421Z,0.00
2023-03-30T04:09:54.424Z,0.00
2023-03-30T04:10:54.402Z,0.00
2023-03-30T04:11:54.400Z,0.00
2023-03-30T04:12:54.387Z,0.00
2023-03-30T04:13:54.389Z,0.00
2023-03-30T04:14:54.357Z,0.00
2023-03-30T04:15:54.453Z,0.00
2023-03-30T04:16:54.326Z,0.00
2023-03-30T04:17:54.395Z,0.00
2023-03-30T04:18:54.342Z,0.00
2023-03-30T04:19:54.299Z,0.00
2023-03-30T04:20:54.287Z,0.00
2023-03-30T04:21:54.268Z,0.00
2023-03-30T04:22:54.315Z,0.00
2023-03-30T04:23:54.268Z,0.00
2023-03-30T04:24:54.233Z,0.00
2023-03-30T04:25:54.256Z,0.00
2023-03-30T04:26:54.218Z,0.00
2023-03-30T04:27:54.203Z,0.00
2023-03-30T04:28:54.226Z,0.00
2023-03-30T04:29:54.192Z,0.00
2023-03-30T04:30:54.206Z,0.00
2023-03-30T04:31:54.238Z,0.00
2023-03-30T04:32:54.230Z,0.00
2023-03-30T04:33:54.150Z,0.00
2023-03-30T04:34:54.165Z,0.00
2023-03-30T04:35:54.196Z,0.00
2023-03-30T04:36:54.147Z,0.00
2023-03-30T04:37:54.101Z,0.00
2023-03-30T04:38:54.081Z,0.00
2023-03-30T04:39:54.094Z,0.00
2023-03-30T04:40:55.046Z,0.00
2023-03-30T04:41:54.081Z,0.00
2023-03-30T04:42:54.041Z,0.00
2023-03-30T04:43:54.041Z,0.00
2023-03-30T04:45:01.590Z,0.00
2023-03-30T04:45:54.067Z,0.00
2023-03-30T04:46:54.002Z,0.00
2023-03-30T04:47:54.062Z,0.00
2023-03-30T04:48:53.984Z,0.00
2023-03-30T04:49:53.981Z,0.00
2023-03-30T04:50:53.993Z,0.00
2023-03-30T04:51:53.958Z,0.00
2023-03-30T04:52:53.959Z,0.00
2023-03-30T04:53:53.924Z,0.00
2023-03-30T04:54:53.927Z,0.00
2023-03-30T04:55:53.934Z,0.00
2023-03-30T04:56:53.899Z,0.00
2023-03-30T04:57:53.881Z,0.00
2023-03-30T04:58:53.873Z,0.00
2023-03-30T04:59:54.671Z,0.00
2023-03-30T05:00:53.915Z,0.00
2023-03-30T05:01:53.850Z,0.00
2023-03-30T05:02:53.893Z,0.00
2023-03-30T05:03:53.884Z,0.00
2023-03-30T05:04:53.803Z,0.00
2023-03-30T05:05:53.803Z,0.00
2023-03-30T05:06:53.823Z,0.00
2023-03-30T05:07:53.778Z,0.00
2023-03-30T05:08:53.764Z,0.00
2023-03-30T05:09:53.757Z,0.00
2023-03-30T05:10:53.768Z,0.00
2023-03-30T05:11:53.761Z,0.00
2023-03-30T05:12:53.733Z,0.00
2023-03-30T05:13:53.722Z,0.00
2023-03-30T05:14:53.698Z,0.00
2023-03-30T05:15:53.736Z,0.00
2023-03-30T05:16:53.776Z,5.62
2023-03-30T05:17:53.719Z,5.62
2023-03-30T05:18:53.652Z,5.62
2023-03-30T05:19:53.665Z,5.62
2023-03-30T05:20:53.641Z,5.62
2023-03-30T05:21:53.648Z,5.62
2023-03-30T05:22:53.661Z,5.62
2023-03-30T05:23:53.612Z,5.62
2023-03-30T05:24:53.590Z,5.62
2023-03-30T05:25:53.743Z,5.62
2023-03-30T05:26:53.567Z,5.62
2023-03-30T05:27:53.578Z,5.62
2023-03-30T05:28:53.557Z,5.62
2023-03-30T05:29:53.543Z,5.62
2023-03-30T05:30:53.593Z,5.62
2023-03-30T05:31:53.578Z,5.62
2023-03-30T05:32:53.615Z,5.62
2023-03-30T05:33:53.498Z,5.62
2023-03-30T05:34:53.491Z,5.62
2023-03-30T05:35:53.523Z,11.25
2023-03-30T05:36:53.458Z,11.25
2023-03-30T05:37:53.449Z,11.25
2023-03-30T05:38:53.467Z,11.25
2023-03-30T05:39:53.481Z,11.25
2023-03-30T05:40:54.161Z,16.88
2023-03-30T05:41:53.420Z,16.88
2023-03-30T05:42:53.715Z,16.88
2023-03-30T05:43:53.378Z,22.50
2023-03-30T05:44:53.688Z,22.50
2023-03-30T05:45:53.405Z,28.12
2023-03-30T05:46:53.531Z,33.75
2023-03-30T05:47:53.350Z,39.38
2023-03-30T05:48:53.360Z,39.38
2023-03-30T05:49:53.414Z,33.75
2023-03-30T05:50:53.504Z,28.12
2023-03-30T05:51:53.328Z,28.12
2023-03-30T05:52:53.306Z,22.50
2023-03-30T05:53:53.310Z,22.50
2023-03-30T05:54:53.301Z,22.50
2023-03-30T05:55:53.296Z,22.50
2023-03-30T05:56:53.290Z,22.50
2023-03-30T05:57:53.224Z,28.12
2023-03-30T05:58:53.236Z,33.75
2023-03-30T05:59:53.230Z,39.38
2023-03-30T06:00:53.209Z,45.00
2023-03-30T06:01:53.189Z,45.00
2023-03-30T06:02:53.244Z,45.00
2023-03-30T06:03:53.550Z,45.00
2023-03-30T06:04:53.202Z,45.00
2023-03-30T06:05:53.146Z,45.00
2023-03-30T06:06:53.150Z,45.00
2023-03-30T06:07:53.138Z,39.38
2023-03-30T06:08:53.099Z,39.38
2023-03-30T06:09:53.604Z,39.38
2023-03-30T06:10:53.108Z,39.38
2023-03-30T06:11:53.121Z,33.75
2023-03-30T06:12:53.062Z,33.75
2023-03-30T06:13:53.061Z,28.12
2023-03-30T06:14:53.070Z,28.12
2023-03-30T06:15:53.048Z,33.75
2023-03-30T06:16:53.071Z,33.75
2023-03-30T06:17:53.071Z,33.75
2023-03-30T06:18:53.002Z,39.38
2023-03-30T06:19:52.996Z,39.38
2023-03-30T06:20:52.964Z,45.00
2023-03-30T06:21:52.967Z,56.25
2023-03-30T06:22:52.951Z,61.88
2023-03-30T06:23:52.947Z,67.50
2023-03-30T06:24:52.957Z,73.12
2023-03-30T06:25:53.233Z,78.75
2023-03-30T06:26:52.917Z,84.38
2023-03-30T06:27:52.945Z,84.38
2023-03-30T06:28:52.881Z,90.00
2023-03-30T06:29:53.009Z,90.00
2023-03-30T06:30:52.928Z,95.62
2023-03-30T06:31:52.939Z,90.00
2023-03-30T06:32:52.876Z,90.00
2023-03-30T06:33:52.841Z,84.38
2023-03-30T06:34:52.927Z,90.00
2023-03-30T06:35:52.883Z,90.00
2023-03-30T06:36:52.796Z,90.00
2023-03-30T06:37:52.786Z,90.00
2023-03-30T06:38:52.782Z,95.62
2023-03-30T06:39:52.755Z,101.25
2023-03-30T06:40:52.741Z,106.88
2023-03-30T06:41:52.765Z,112.50
2023-03-30T06:42:52.833Z,118.12
2023-03-30T06:43:52.770Z,123.75
2023-03-30T06:44:52.701Z,118.12
2023-03-30T06:47:08.609Z,112.50
2023-03-30T06:48:08.596Z,106.88
2023-03-30T06:49:08.594Z,101.25
2023-03-30T06:50:08.556Z,101.25
2023-03-30T06:51:08.550Z,101.25
2023-03-30T06:52:08.880Z,101.25
2023-03-30T06:53:08.540Z,118.12
2023-03-30T06:54:08.535Z,123.75
2023-03-30T06:55:08.516Z,135.00
2023-03-30T06:56:08.515Z,146.25
2023-03-30T06:57:08.590Z,151.88
2023-03-30T06:58:08.500Z,163.12
2023-03-30T06:59:08.497Z,168.75
2023-03-30T07:00:08.450Z,174.38
2023-03-30T07:01:08.457Z,174.38
2023-03-30T07:02:08.429Z,168.75
2023-03-30T07:03:08.490Z,174.38
2023-03-30T07:04:08.442Z,174.38
2023-03-30T07:05:08.464Z,180.00
2023-03-30T07:06:08.440Z,180.00
2023-03-30T07:07:08.383Z,180.00
2023-03-30T07:08:08.540Z,185.62
2023-03-30T07:09:08.372Z,191.25
2023-03-30T07:10:08.377Z,191.25
2023-03-30T07:11:08.354Z,196.88
2023-03-30T07:12:08.316Z,202.50
2023-03-30T07:13:08.313Z,202.50
2023-03-30T07:14:08.332Z,213.75
2023-03-30T07:15:08.284Z,225.00
2023-03-30T07:16:08.307Z,230.62
2023-03-30T07:17:08.302Z,247.50
2023-03-30T07:18:08.535Z,264.38
2023-03-30T07:19:08.259Z,286.88
2023-03-30T07:20:08.244Z,275.62
2023-03-30T07:21:08.260Z,236.25
2023-03-30T07:22:08.226Z,258.75
2023-03-30T07:23:08.219Z,281.25
2023-03-30T07:24:08.214Z,258.75
2023-03-30T07:25:08.213Z,298.12
2023-03-30T07:26:08.181Z,213.75
2023-03-30T07:27:08.164Z,360.00
2023-03-30T07:28:08.135Z,247.50
2023-03-30T07:29:08.139Z,253.12
2023-03-30T07:30:20.553Z,281.25
2023-03-30T07:31:09.220Z,990.00
2023-03-30T07:32:08.123Z,860.62
2023-03-30T07:33:08.162Z,1665.00
2023-03-30T07:34:08.085Z,1771.88
2023-03-30T07:35:08.601Z,1001.25
2023-03-30T07:36:08.090Z,2036.25
2023-03-30T07:37:08.077Z,2103.75
2023-03-30T07:38:08.033Z,2154.38
2023-03-30T07:39:08.028Z,624.38
2023-03-30T07:40:08.046Z,556.88
2023-03-30T07:41:08.026Z,517.50
2023-03-30T07:42:08.022Z,466.88
2023-03-30T07:43:07.989Z,433.12
2023-03-30T07:44:07.964Z,489.38
2023-03-30T07:45:07.970Z,787.50
2023-03-30T07:46:08.082Z,922.50
2023-03-30T07:47:08.032Z,2340.00
2023-03-30T07:48:07.956Z,2368.12
2023-03-30T07:49:07.906Z,2340.00
2023-03-30T07:50:07.900Z,2289.38
2023-03-30T07:51:07.942Z,2278.12
2023-03-30T07:52:07.870Z,2306.25
2023-03-30T07:53:08.777Z,1074.38
2023-03-30T07:54:07.849Z,562.50
2023-03-30T07:55:07.844Z,399.38
2023-03-30T07:56:07.856Z,281.25
2023-03-30T07:57:07.950Z,247.50
2023-03-30T07:58:07.894Z,241.88
2023-03-30T07:59:07.861Z,258.75
2023-03-30T08:00:07.862Z,275.62
2023-03-30T08:01:07.789Z,281.25
2023-03-30T08:02:08.257Z,264.38
2023-03-30T08:03:07.814Z,241.88
2023-03-30T08:04:07.861Z,196.88
2023-03-30T08:05:07.859Z,185.62
2023-03-30T08:06:07.764Z,196.88
2023-03-30T08:07:07.713Z,191.25
2023-03-30T08:08:07.743Z,191.25
2023-03-30T08:09:07.694Z,196.88
2023-03-30T08:10:07.707Z,208.12
2023-03-30T08:11:07.703Z,241.88
2023-03-30T08:12:07.753Z,286.88
2023-03-30T08:13:07.799Z,326.25
2023-03-30T08:14:07.766Z,365.62
2023-03-30T08:15:07.684Z,388.12
2023-03-30T08:16:07.647Z,455.62
2023-03-30T08:17:07.652Z,635.62
2023-03-30T08:18:07.851Z,646.88
2023-03-30T08:19:07.588Z,613.12
2023-03-30T08:20:07.562Z,427.50
2023-03-30T08:21:07.716Z,388.12
2023-03-30T08:22:07.535Z,376.88
2023-03-30T08:23:07.528Z,416.25
2023-03-30T08:24:07.537Z,343.12
2023-03-30T08:25:07.509Z,326.25
2023-03-30T08:26:07.511Z,275.62
2023-03-30T08:27:07.719Z,247.50
2023-03-30T08:28:07.471Z,241.88
2023-03-30T08:29:07.461Z,247.50
2023-03-30T08:30:07.458Z,264.38
2023-03-30T08:31:07.652Z,258.75
2023-03-30T08:32:07.462Z,247.50
2023-03-30T08:33:07.446Z,230.62
2023-03-30T08:34:07.429Z,208.12
2023-03-30T08:35:07.401Z,202.50
2023-03-30T08:36:07.672Z,230.62
2023-03-30T08:37:07.407Z,275.62
2023-03-30T08:38:07.379Z,331.88
2023-03-30T08:39:07.493Z,360.00
2023-03-30T08:40:07.353Z,393.75
2023-03-30T08:41:07.573Z,489.38
2023-03-30T08:42:07.315Z,365.62
2023-03-30T08:43:07.317Z,253.12
2023-03-30T08:44:07.312Z,180.00
2023-03-30T08:45:07.329Z,146.25
2023-03-30T08:46:07.342Z,129.38
2023-03-30T08:47:14.801Z,112.50
2023-03-30T08:48:07.283Z,95.62
2023-03-30T08:49:07.309Z,90.00
2023-03-30T08:50:07.278Z,84.38
2023-03-30T08:51:07.224Z,78.75
2023-03-30T08:52:07.205Z,84.38
2023-03-30T08:53:07.243Z,106.88
2023-03-30T08:54:07.368Z,135.00
2023-03-30T08:55:07.284Z,174.38
2023-03-30T08:56:07.196Z,219.38
2023-03-30T08:57:07.217Z,270.00
2023-03-30T08:58:07.145Z,320.62
2023-03-30T08:59:07.817Z,365.62
2023-03-30T09:00:07.168Z,365.62
2023-03-30T09:01:07.423Z,303.75
2023-03-30T09:02:07.144Z,253.12
2023-03-30T09:03:07.304Z,219.38
2023-03-30T09:04:07.099Z,191.25
2023-03-30T09:05:07.105Z,180.00
2023-03-30T09:06:07.092Z,185.62
2023-03-30T09:07:07.041Z,191.25
2023-03-30T09:08:07.036Z,191.25
2023-03-30T09:09:07.027Z,168.75
2023-03-30T09:10:07.025Z,146.25
2023-03-30T09:11:07.124Z,140.62
2023-03-30T09:12:06.986Z,151.88
2023-03-30T09:13:06.993Z,140.62
2023-03-30T09:14:07.009Z,140.62
2023-03-30T09:15:06.981Z,140.62
2023-03-30T09:16:06.964Z,123.75
2023-03-30T09:17:06.949Z,106.88
2023-03-30T09:18:06.963Z,90.00
2023-03-30T09:19:06.943Z,84.38
2023-03-30T09:20:06.936Z,73.12
2023-03-30T09:21:07.397Z,61.88
2023-03-30T09:22:06.913Z,56.25
2023-03-30T09:23:06.866Z,45.00
2023-03-30T09:24:06.872Z,33.75
2023-03-30T09:25:06.840Z,28.12
2023-03-30T09:26:06.823Z,28.12
2023-03-30T09:27:06.828Z,28.12
2023-03-30T09:28:06.818Z,33.75
2023-03-30T09:29:06.791Z,39.38
2023-03-30T09:30:06.935Z,45.00
2023-03-30T09:31:07.048Z,56.25
2023-03-30T09:32:06.841Z,73.12
2023-03-30T09:33:06.804Z,84.38
2023-03-30T09:34:09.137Z,95.62
2023-03-30T09:35:06.730Z,95.62
2023-03-30T09:36:06.944Z,123.75
2023-03-30T09:37:06.704Z,157.50
2023-03-30T09:38:06.723Z,180.00
2023-03-30T09:39:06.683Z,191.25
2023-03-30T09:40:06.673Z,202.50
2023-03-30T09:41:06.687Z,219.38
2023-03-30T09:42:06.671Z,236.25
2023-03-30T09:43:06.641Z,247.50
2023-03-30T09:44:06.670Z,236.25
2023-03-30T09:45:06.634Z,213.75
2023-03-30T09:46:07.079Z,180.00
2023-03-30T09:47:06.609Z,151.88
2023-03-30T09:48:06.626Z,135.00
2023-03-30T09:49:06.581Z,123.75
2023-03-30T09:50:06.572Z,118.12
2023-03-30T09:51:06.562Z,123.75
2023-03-30T09:52:06.559Z,129.38
2023-03-30T09:53:06.537Z,140.62
2023-03-30T09:54:06.684Z,146.25
2023-03-30T09:55:06.595Z,163.12
2023-03-30T09:56:06.758Z,180.00
2023-03-30T09:57:06.571Z,196.88
2023-03-30T09:58:06.486Z,208.12
2023-03-30T09:59:06.474Z,213.75
2023-03-30T10:00:06.449Z,225.00
2023-03-30T10:01:06.468Z,241.88
2023-03-30T10:02:08.244Z,258.75
2023-03-30T10:03:06.646Z,264.38
2023-03-30T10:04:06.759Z,270.00
2023-03-30T10:05:06.685Z,281.25
2023-03-30T10:06:06.629Z,281.25
2023-03-30T10:07:18.272Z,275.62
2023-03-30T10:08:06.362Z,286.88
2023-03-30T10:09:06.513Z,315.00
2023-03-30T10:10:06.410Z,365.62
2023-03-30T10:11:06.579Z,511.88
2023-03-30T10:12:06.420Z,523.12
2023-03-30T10:13:06.329Z,1350.00
2023-03-30T10:14:06.378Z,1614.38
2023-03-30T10:15:06.281Z,686.25
2023-03-30T10:16:06.622Z,781.88
2023-03-30T10:17:06.399Z,590.62
2023-03-30T10:18:06.728Z,1473.75
2023-03-30T10:19:06.337Z,2660.62
2023-03-30T10:20:13.518Z,2666.25
2023-03-30T10:21:07.222Z,1901.25
2023-03-30T10:22:06.232Z,1676.25
2023-03-30T10:23:06.209Z,916.88
2023-03-30T10:24:06.174Z,2536.88
2023-03-30T10:25:08.703Z,2137.50
2023-03-30T10:26:06.374Z,2643.75
2023-03-30T10:27:06.205Z,703.12
2023-03-30T10:28:06.136Z,1299.38
2023-03-30T10:29:06.141Z,832.50
2023-03-30T10:30:06.114Z,2593.12
2023-03-30T10:31:06.115Z,804.38
2023-03-30T10:32:06.083Z,894.38
2023-03-30T10:33:06.142Z,776.25
2023-03-30T10:34:06.062Z,562.50
2023-03-30T10:35:06.066Z,573.75
2023-03-30T10:36:06.257Z,517.50
2023-03-30T10:37:06.087Z,939.38
2023-03-30T10:38:06.185Z,883.12
2023-03-30T10:39:08.488Z,753.75
2023-03-30T10:40:06.022Z,1192.50
2023-03-30T10:41:05.993Z,2885.62
2023-03-30T10:42:06.003Z,2941.88
2023-03-30T10:43:05.971Z,2885.62
2023-03-30T10:44:06.245Z,2694.38
2023-03-30T10:45:05.945Z,2790.00
2023-03-30T10:46:18.375Z,866.25
2023-03-30T10:47:05.962Z,2289.38
2023-03-30T10:48:15.324Z,1023.75
2023-03-30T10:49:05.903Z,1659.38
2023-03-30T10:50:05.958Z,815.62
2023-03-30T10:51:05.884Z,2902.50
2023-03-30T10:52:05.868Z,2964.38
2023-03-30T10:53:05.969Z,984.38
2023-03-30T10:54:05.860Z,2778.75
2023-03-30T10:55:05.840Z,1040.62
2023-03-30T10:56:06.083Z,720.00
2023-03-30T10:57:05.839Z,2671.88
2023-03-30T10:58:05.817Z,2615.62
2023-03-30T10:59:05.791Z,2002.50
2023-03-30T11:00:05.986Z,1147.50
2023-03-30T11:01:05.936Z,1310.62
2023-03-30T11:02:05.845Z,2604.38
2023-03-30T11:03:05.851Z,641.25
2023-03-30T11:04:20.562Z,2655.00
2023-03-30T11:05:05.744Z,832.50
2023-03-30T11:06:06.043Z,1085.62
2023-03-30T11:07:05.694Z,2407.50
2023-03-30T11:08:05.691Z,2491.88
2023-03-30T11:09:05.675Z,2593.12
2023-03-30T11:10:05.680Z,2638.12
2023-03-30T11:11:05.652Z,2677.50
2023-03-30T11:12:05.658Z,939.38
2023-03-30T11:13:05.681Z,2795.62
2023-03-30T11:14:05.640Z,2716.88
2023-03-30T11:15:05.638Z,1395.00
2023-03-30T11:16:06.079Z,568.12
2023-03-30T11:17:05.655Z,551.25
2023-03-30T11:18:05.638Z,511.88
2023-03-30T11:19:05.618Z,523.12
2023-03-30T11:20:05.559Z,489.38
2023-03-30T11:21:05.542Z,427.50
2023-03-30T11:22:05.541Z,410.62
2023-03-30T11:23:05.525Z,388.12
2023-03-30T11:24:05.508Z,360.00
2023-03-30T11:25:05.507Z,376.88
2023-03-30T11:26:05.687Z,517.50
2023-03-30T11:27:05.467Z,495.00
2023-03-30T11:28:05.474Z,444.38
2023-03-30T11:29:05.464Z,405.00
2023-03-30T11:30:05.466Z,382.50
2023-03-30T11:31:05.473Z,393.75
2023-03-30T11:32:05.560Z,354.38
2023-03-30T11:33:05.472Z,303.75
2023-03-30T11:34:05.402Z,247.50
2023-03-30T11:35:05.410Z,213.75
2023-03-30T11:36:05.718Z,185.62
2023-03-30T11:37:06.218Z,174.38
2023-03-30T11:38:05.353Z,180.00
2023-03-30T11:39:05.439Z,196.88
2023-03-30T11:40:05.354Z,208.12
2023-03-30T11:41:05.323Z,202.50
2023-03-30T11:42:05.336Z,185.62
2023-03-30T11:43:05.305Z,180.00
2023-03-30T11:44:05.288Z,191.25
2023-03-30T11:45:05.271Z,213.75
2023-03-30T11:46:05.580Z,241.88
2023-03-30T11:47:05.266Z,270.00
2023-03-30T11:48:05.308Z,292.50
2023-03-30T11:49:05.266Z,309.38
2023-03-30T11:50:05.234Z,337.50
2023-03-30T11:51:05.420Z,365.62
2023-03-30T11:52:05.237Z,399.38
2023-03-30T11:53:05.180Z,444.38
2023-03-30T11:54:05.179Z,506.25
2023-03-30T11:55:05.191Z,658.12
2023-03-30T11:56:05.410Z,630.00
2023-03-30T11:57:05.213Z,945.00
2023-03-30T11:58:06.735Z,798.75
2023-03-30T11:59:05.134Z,770.62
2023-03-30T12:00:05.130Z,832.50
2023-03-30T12:01:05.223Z,995.62
2023-03-30T12:02:07.321Z,1923.75
2023-03-30T12:03:05.206Z,821.25
2023-03-30T12:04:05.107Z,2385.00
2023-03-30T12:05:05.094Z,2199.38
2023-03-30T12:06:05.181Z,2143.12
2023-03-30T12:07:05.070Z,2244.38
2023-03-30T12:08:05.098Z,2008.12
2023-03-30T12:09:05.005Z,590.62
2023-03-30T12:10:07.639Z,596.25
2023-03-30T12:11:05.164Z,675.00
2023-03-30T12:12:04.991Z,2008.12
2023-03-30T12:13:04.968Z,421.88
2023-03-30T12:14:04.952Z,410.62
2023-03-30T12:15:04.953Z,472.50
2023-03-30T12:16:05.184Z,573.75
2023-03-30T12:17:04.942Z,540.00
2023-03-30T12:18:05.054Z,2413.12
2023-03-30T12:19:04.928Z,838.12
2023-03-30T12:20:04.904Z,624.38
2023-03-30T12:21:04.897Z,2435.62
2023-03-30T12:22:04.866Z,1552.50
2023-03-30T12:23:04.860Z,2413.12
2023-03-30T12:24:05.239Z,753.75
2023-03-30T12:25:04.855Z,2317.50
2023-03-30T12:26:05.226Z,573.75
2023-03-30T12:27:07.407Z,534.38
2023-03-30T12:28:04.834Z,2250.00
2023-03-30T12:29:26.253Z,1451.25
2023-03-30T12:30:05.805Z,1198.12
2023-03-30T12:31:04.871Z,736.88
2023-03-30T12:32:04.916Z,1878.75
2023-03-30T12:33:04.770Z,961.88
2023-03-30T12:34:04.775Z,1327.50
2023-03-30T12:35:04.754Z,1147.50
2023-03-30T12:36:04.937Z,658.12
2023-03-30T12:37:04.754Z,635.62
2023-03-30T12:38:04.688Z,511.88
2023-03-30T12:39:04.674Z,489.38
2023-03-30T12:40:04.694Z,517.50
2023-03-30T12:41:04.663Z,641.25
2023-03-30T12:42:04.650Z,579.38
2023-03-30T12:43:04.657Z,568.12
2023-03-30T12:44:04.636Z,545.62
2023-03-30T12:45:04.624Z,2244.38
2023-03-30T12:46:04.840Z,815.62
2023-03-30T12:47:06.631Z,663.75
2023-03-30T12:48:04.624Z,2154.38
2023-03-30T12:49:12.164Z,2131.88
2023-03-30T12:50:04.662Z,461.25
2023-03-30T12:51:04.830Z,399.38